• Join
  • Home Weather

    Search Airports

    EUROPE TAF - 1417 UTC

    RocketRoute Online Flight Planning, FREE trial
    Germany   France   Benelux   Austria   Swiss   Spain   Portugal   Italy   Baltic   Nordic   Other

    Goto METARs

     

    United Kingdom - 22 Jan 2018 - 1417 UTC

    ABERDEEN DYCEEGPD221053Z 2212/2312 24008KT 9999 SCT040 PROB30 TEMPO 2223/2305 6000 -RADZ TEMPO 2304/2312 4000 RADZ BR BKN004 BECMG 2306/2309 18015KT PROB40 TEMPO 2306/2312 18018G28KT
    BELFAST ALDERGROVEEGAA221101Z 2212/2312 22012KT 9999 FEW020 BKN030 PROB30 TEMPO 2212/2218 6000 -SHRA BKN014 BECMG 2221/2301 17016G26KT TEMPO 2223/2309 7000 RA -RADZ BKN010 PROB30 TEMPO 2302/2306 4000 RADZ BKN004 BECMG 2308/2310 23018G28KT PROB40 TEMPO 2309/2312 7000 SHRA BKN014
    BIGGIN HILLEGKB221059Z 2212/2221 28008KT 9999 SCT040
    BOURNEMOUTHEGHH221100Z 2212/2221 28008KT 9999 SCT045
    BRISTOLEGGD221057Z 2212/2312 28011KT 9999 SCT020 BECMG 2218/2221 19004KT PROB30 TEMPO 2218/2221 8000 -RA BKN010 BECMG 2303/2306 19014KT 8000 -RA BKN008 TEMPO 2303/2311 19018G28KT 3000 RA BKN002 PROB40 TEMPO 2303/2310 0300 FG BKN000
    CARDIFFEGFF221057Z 2212/2312 28010KT 9999 SCT040 BECMG 2222/2301 15007KT BECMG 2301/2304 BKN006 TEMPO 2302/2310 5000 -RA BECMG 2305/2308 23014KT PROB40 TEMPO 2305/2312 0800 RADZ FG BKN001 TEMPO 2307/2312 25017G27KT
    DONCASTER SHEFFIELDEGCN221055Z 2212/2312 26009KT 9999 FEW030 BECMG 2300/2303 18012KT TEMPO 2306/2312 19018G28KT PROB40 TEMPO 2306/2311 6000 RA BKN008
    DURHAM TEES VALLEYEGNV221056Z 2212/2221 21008KT 9999 FEW040
    EAST MIDLANDSEGNX221057Z 2212/2312 27011KT 9999 FEW045 BECMG 2221/2224 20009KT TEMPO 2305/2312 22017G27KT 6000 -RA BKN012 PROB30 TEMPO 2305/2310 4000 RADZ BKN008
    EDINBURGHEGPH221053Z 2212/2312 25013KT 9999 SCT035 PROB30 TEMPO 2212/2218 7000 SHRA BKN014 BECMG 2221/2224 19012KT TEMPO 2302/2312 21025G35KT 6000 RA PROB40 TEMPO 2305/2312 4000 +RA BKN014
    EXETEREGTE221100Z 2212/2221 29011KT 9999 SCT030 BECMG 2217/2220 20008KT
    FARNBOROUGHEGLF221059Z 2212/2221 27006KT 9999 SCT040
    GLASGOWEGPF221055Z 2212/2312 25014KT 9999 SCT030 PROB40 TEMPO 2212/2215 7000 SHRA BKN014 BECMG 2300/2303 19012KT TEMPO 2303/2311 4000 RADZ BKN004 TEMPO 2306/2312 20018G28KT
    GUERNSEYEGJB221103Z 2212/2221 31013KT 9999 FEW010 BECMG 2220/2221 25009KT
    HUMBERSIDEEGNJ221056Z 2212/2221 24009KT 9999 FEW040
    INVERNESSEGPE221056Z 2212/2221 23014KT 9999 SCT030 PROB40 TEMPO 2212/2218 23018G28KT 8000 -SHRA
    JERSEYEGJJ221103Z 2212/2221 31013KT 9999 FEW010 BECMG 2220/2221 24008KT
    KIRKWALLEGPA221056Z 2212/2221 26018G32KT 9999 SCT020 TEMPO 2212/2216 4000 RADZ BKN010 BECMG 2218/2221 23012KT
    LEEDS BRADFORDEGNM221057Z 2212/2312 26015KT 9999 SCT018 TEMPO 2212/2216 27022G35KT PROB30 TEMPO 2212/2221 5000 SHRA BKN008 TEMPO 2303/2312 21020G30KT 6000 RA BKN008 PROB30 TEMPO 2308/2312 3000 BR BKN002
    LIVERPOOLEGGP221057Z 2212/2312 27015KT 9999 FEW025 SCT040 BECMG 2217/2220 21010KT BECMG 2221/2224 14008KT TEMPO 2304/2312 16017G27KT 5000 -RADZ BKN012 PROB30 TEMPO 2306/2310 3000 RADZ BKN008
    LONDON CITYEGLC221059Z 2212/2221 28008KT 9999 SCT040
    LONDON GATWICKEGKK221057Z 2212/2318 29008KT 9999 SCT030 BECMG 2305/2308 21012KT BKN012 TEMPO 2307/2318 7000 -RA BKN008 PROB40 TEMPO 2307/2318 3000 RADZ BKN004 PROB30 TEMPO 2312/2318 24015G25KT
    LONDON HEATHROWEGLL221053Z 2212/2318 30010KT 9999 SCT035 BECMG 2304/2307 21012KT BKN012 TEMPO 2305/2318 6000 -RADZ BKN008 PROB40 TEMPO 2305/2318 3000 RADZ TEMPO 2307/2310 23015G25KT
    LONDON LUTONEGGW221058Z 2212/2312 28009KT 9999 SCT040 BECMG 2221/2224 20010KT PROB30 TEMPO 2304/2306 6000 -RA BKN010 BECMG 2306/2309 19015G25KT 6000 -RA SCT003 BKN006 TEMPO 2307/2312 3000 RADZ BKN003 PROB40 TEMPO 2308/2312 0600 DZ FG BKN001
    LONDON STANSTEDEGSS221058Z 2212/2318 28008KT 9999 SCT040 BECMG 2221/2224 21010KT PROB30 TEMPO 2305/2307 6000 -RA BKN012 BECMG 2307/2310 19015G25KT 6000 -RA SCT004 BKN007 TEMPO 2308/2314 3000 RADZ BKN004 PROB30 TEMPO 2309/2313 0600 DZ FG BKN001 BECMG 2314/2316 9999 NSW SCT018 TEMPO 2316/2318 6000 -RA BKN010
    LYDDEGMD221059Z 2212/2221 29011KT 9999 SCT040
    MANCHESTEREGCC221057Z 2212/2318 27012KT 9999 FEW015 SCT040 BECMG 2217/2220 21006KT BECMG 2222/2301 15010KT TEMPO 2304/2314 5000 -RADZ BKN009 TEMPO 2304/2318 18016G26KT PROB30 TEMPO 2305/2311 3000 RADZ BKN004
    MANSTONEGMH 
    NEWCASTLEEGNTAMD 221336Z 2213/2312 26012KT 9999 FEW020 TEMPO 2213/2218 26025G35KT BECMG 2303/2306 19012KT TEMPO 2306/2312 20018G28KT PROB40 TEMPO 2306/2312 7000 RA BKN012
    NORWICHEGSH221059Z 2212/2221 28008KT 9999 SCT040
    PRESTWICKEGPK221055Z 2212/2312 26012KT 9999 FEW010 SCT030 PROB30 TEMPO 2212/2215 26015G25KT 8000 -SHRA BKN014 BECMG 2221/2224 19012KT TEMPO 2300/2312 19020G30KT TEMPO 2303/2311 4000 RADZ BKN004
    SHOREHAMEGKA221059Z 2212/2220 29008KT 9999 SCT040
    SOUTHAMPTONEGHI221100Z 2212/2221 30008KT 9999 SCT045
    SOUTHENDEGMC221059Z 2212/2221 28009KT 9999 SCT040
    WICKEGPCAMD 221255Z 2212/2221 24012KT 9999 SCT030 TEMPO 2212/2214 6000 RA -RADZ PROB40 TEMPO 2212/2215 24018G28KT
    GIBRALTARLXGBAMD 221336Z 2213/2221 23012KT 9999 FEW020 TEMPO 2213/2216 20014KT 520002

    Goto METARs

     

    Germany - 22 Jan 2018 - 1417 UTC

    BRANDENBURGEDDB221100Z 2212/2312 12010KT CAVOK TEMPO 2214/2221 4000 -SN BKN005 BECMG 2221/2301 23005KT 4000 BR BKN008 TEMPO 2300/2312 2000 -RADZ BKN004
    BREMENEDDW221100Z 2212/2312 15008KT 6000 BKN007 BECMG 2212/2215 25007KT TEMPO 2212/2304 2000 -DZ BR BKN003 BECMG 2309/2312 BKN015
    DRESDENEDDC221100Z 2212/2312 15010KT CAVOK TEMPO 2213/2219 4000 -SN BECMG 2218/2221 25008KT BKN012 TEMPO 2219/2306 2000 -RASN BKN008 PROB30 TEMPO 2221/2312 1200 RASN BR BKN004
    DUSSELDORFEDDL221100Z 2212/2318 28008KT 9999 BKN040 BECMG 2217/2220 19007KT BECMG 2308/2310 19013KT
    FRANKFURT HAHNEDFH221100Z 2212/2312 27010KT 2500 BR BKN002 PROB30 TEMPO 2212/2214 0200 FG OVC001 BECMG 2212/2215 4000 BR SCT002 OVC005 BECMG 2215/2218 6000 SCT005 BKN010 TEMPO 2218/2309 2500 -DZ BR BKN004
    FRANKFURT MAINEDDFAMD 221352Z 2213/2318 27005KT 9999 SCT004 BKN020 BECMG 2306/2309 20008KT
    HAMBURGEDDHCOR 221145Z 2212/2318 13010KT 6000 BKN007 BECMG 2212/2215 12005KT TEMPO 2212/2218 2500 -SN BKN003 PROB30 TEMPO 2212/2215 1200 SN TEMPO 2218/2309 2000 -DZ BR BKN003 BECMG 2221/2224 VRB03KT BECMG 2303/2306 22005KT BECMG 2309/2312 22010KT BECMG 2315/2318 20015KT BKN015
    HANNOVEREDDV221100Z 2212/2312 16010KT 9999 BKN015 BECMG 2212/2215 27007KT TEMPO 2212/2308 2000 -DZ BR BKN007 PROB30 TEMPO 2212/2308 BKN003 BECMG 2309/2312 21010KT
    HERINGSDORFEDAH 
    KARLSRUHE BADEN BADENEDSB221100Z 2212/2312 20010KT 9999 OVC020 TEMPO 2212/2216 4000 DZRA BKN012 BECMG 2214/2216 20005KT PROB30 TEMPO 2300/2308 4000 -DZ BR BKN012 BECMG 2308/2310 20010KT
    KASSEL CALDENEDVK221100Z 2212/2221 18007KT 8000 OVC010 BECMG 2212/2215 25007KT TEMPO 2212/2221 4000 -DZRA OVC008
    KOLN BONNEDDK221100Z 2212/2318 29008KT 9999 BKN040 BECMG 2217/2220 19007KT BKN012 BECMG 2306/2308 BKN030
    LAAGEETNLAMD 221305Z 2213/2221 12008KT 9999 NSW SCT010 BKN080 TEMPO 2213/2221 14010KT 2000 -SN BKN005 OVC008 BECMG 2214/2216 14010KT 5000 BR SCT005 BKN008 BY ETGL
    LEIPZIG HALLEEDDP221100Z 2212/2312 15012KT 9000 BKN020 TEMPO 2212/2215 3000 -SN BKN012 BECMG 2214/2216 20007KT PROB30 TEMPO 2215/2306 3000 -DZ BKN010 BECMG 2219/2222 26009KT
    LUBECK BLANKENSEEEDHL221100Z 2212/2221 12008KT 6000 BKN007 TEMPO 2212/2221 2500 -SN BKN003 BECMG 2216/2219 11003KT PROB30 TEMPO 2218/2221 1400 -SNDZ
    MUNCHENEDDMAMD 221200Z 2212/2318 VRB03KT 3500 -DZRA BKN004 BKN012 BECMG 2212/2214 24007KT 8000 SCT004 BKN012 TEMPO 2212/2224 BKN008 TEMPO 2214/2220 3000 -RADZ BECMG 2306/2309 SCT020 BKN035
    MUNSTER OSNABRUCKEDDG221100Z 2212/2312 26008KT 2500 BR BKN003 BECMG 2212/2216 7000 BKN015 BECMG 2216/2219 SCT008 BKN011 TEMPO 2222/2308 BKN008 BECMG 2308/2311 SCT010 BKN030
    NURNBERGEDDN221100Z 2212/2312 14008KT 3000 -DZ BKN006 TEMPO 2212/2224 6000 BECMG 2218/2221 29005KT BECMG 2223/2301 7000 BECMG 2305/2307 SCT007 BKN012 BECMG 2310/2312 SCT010 BKN020
    PADERBORN LIPPSTADTEDLP221100Z 2212/2312 22011KT 4000 BR BKN005 TEMPO 2212/2306 2000 -DZ BR BKN002 BECMG 2212/2215 28008KT PROB30 TEMPO 2212/2218 1200 -DZ BKN001 BECMG 2306/2309 19010KT 9999 SCT010 BKN025
    SAARBRUCKENEDDR221100Z 2212/2312 24008KT 9999 BKN012 TEMPO 2212/2215 4000 DZRA BKN009 BECMG 2215/2218 30007KT BKN015 TEMPO 2300/2309 3000 BR BKN008 BECMG 2302/2304 24005KT BECMG 2309/2312 22010KT
    STUTTGARTEDDS221100Z 2212/2312 21006KT 9999 BKN025 PROB30 TEMPO 2212/2218 4000 DZRA BECMG 2217/2219 28007KT BECMG 2308/2310 21005KT
    SYLTEDXW221100Z 2212/2218 12012KT 6000 BKN012 TEMPO 2212/2218 1200 -DZSN BR BKN007 PROB40 TEMPO 2212/2218 BKN003
    TEGELEDDT221100Z 2212/2312 12010KT CAVOK TEMPO 2214/2221 4000 -SN BKN005 BECMG 2221/2301 23005KT 4000 BR BKN008 TEMPO 2300/2312 2000 -RADZ BKN004

    Goto METARs

     

    France - 22 Jan 2018 - 1417 UTC

    AIX LES BAINSLFLB221100Z 2212/2312 20010KT 9999 BKN040 TEMPO 2212/2222 4000 RA SCT008 BKN014 BECMG 2215/2217 VRB05KT PROB40 TEMPO 2223/2306 2500 BR BECMG 2306/2308 CAVOK
    ANGLETLFBZ221100Z 2212/2312 23008KT 9999 SCT030 BKN040 BECMG 2214/2216 6000 OVC008 TEMPO 2218/2304 2000 BR OVC005
    AUVERGNELFLC220800Z 2209/2309 27010KT 9999 BKN040 TEMPO 2212/2218 27015G28KT 5000 RA OVC030 TEMPO 2218/2303 32008KT OVC015
    BALE MULHOUSELFSB221100Z 2212/2312 26010G20KT 9999 BKN025 BKN060 PROB40 TEMPO 2212/2214 4000 RA BKN014 TEMPO 2214/2218 25015G30KT -SHRA FEW030TCU PROB30 TEMPO 2214/2217 26020G40KT 4000 SHRA FEW030CB BECMG 2302/2304 23007KT
    BELLEGARDELFBLAMD 221215Z 2212/2312 27022G35KT 4000 -RADZ OVC005 BECMG 2212/2213 9999 NSW OVC008 TEMPO 2213/2216 BKN013 TEMPO 2216/2219 3000 -DZRA OVC004 BECMG 2216/2218 29010KT BECMG 2222/2224 VRB02KT OVC013 PROB40 2300/2304 2000 BR OVC002 BECMG 2306/2308 18008KT BKN020 TEMPO 2309/2312 -DZRA BKN011
    BIARDLFBI221100Z 2212/2312 28015G25KT 9999 BKN020 TEMPO 2212/2216 28020G35KT 4500 -SHRA BKN010 OVC015 BECMG 2216/2218 28010KT BECMG 2222/2224 22007KT 6000 OVC005 TEMPO 2300/2306 2500 BR OVC003 TEMPO 2306/2312 2000 -DZ BKN004 OVC015 PROB30 TEMPO 2306/2312 BKN020
    BLAGNACLFBO221100Z 2212/2318 27012KT 9999 BKN020 BECMG 2212/2214 27018G30KT TEMPO 2215/2219 4000 -RA OVC010 BECMG 2220/2222 30010KT BECMG 2301/2303 VRB02KT BECMG 2305/2307 SCT025 PROB30 TEMPO 2305/2307 4000 BR
    BRETAGNELFRB221100Z 2212/2318 30013KT 9999 BKN014 BECMG 2212/2214 SCT018 BECMG 2216/2218 22007KT BECMG 2221/2223 20013KT -RA OVC014 BECMG 2223/2301 20015G25KT 5000 -RADZ OVC005 TEMPO 2301/2312 1500 RADZ OVC002 TEMPO 2312/2318 3000 -DZ OVC003
    BRONLFLY221100Z 2212/2312 19007KT 9999 BKN040 BECMG 2214/2216 30010KT TEMPO 2220/2224 BKN014 BECMG 2309/2311 CAVOK
    CARPIQUETLFRKAMD 221203Z 2212/2221 33015G25KT 9999 BKN009 BECMG 2212/2214 30012KT BKN020 BECMG 2219/2220 24008KT
    COTE D AZURLFMN220800Z 2209/2315 VRB05KT CAVOK PROB40 TEMPO 2216/2303 35010KT BKN013
    ENTZHEIMLFSTAMD 221414Z 2214/2312 17006KT 9999 FEW010 BKN030 TEMPO 2214/2217 35008KT 2000 RA BKN004 TEMPO 2217/2222 32010KT BECMG 2309/2312 22010KT
    GARONSLFTW220800Z 2209/2309 31010KT CAVOK TEMPO 2211/2215 30010G20KT BECMG 2300/2303 36010KT TEMPO 2303/2309 36015G25KT
    LANN BIHOUELFRH221100Z 2212/2312 30015KT 9999 BKN025 BKN035 BECMG 2214/2216 SCT030 TEMPO 2214/2218 CAVOK BECMG 2216/2218 22010KT BECMG 2218/2220 BKN015 BECMG 2222/2224 BKN007 OVC015 BECMG 2300/2302 4000 -RA BKN002 OVC007 TEMPO 2300/2310 22010G20KT 1000 DZ BR VV/// BECMG 2302/2304 2000 DZ OVC002 BECMG 2310/2312 22015G25KT
    LE BOURGETLFPB221100Z 2212/2312 24010KT 4000 -RA SCT004 BKN008 PROB30 TEMPO 2212/2213 32015G25KT 1400 RA SCT012CB BKN015 BECMG 2213/2214 9999 NSW BKN020 BECMG 2221/2223 BKN012 TEMPO 2307/2312 4000 -RADZ BKN005
    LESQUINLFQQ221100Z 2212/2318 31006KT 9999 BKN030 BECMG 2305/2307 19013KT BECMG 2308/2310 OVC013 TEMPO 2310/2318 3000 RADZ OVC007
    LE TOUQUETLFAT221100Z 2212/2221 35007KT 9999 SCT030
    MEDITERRANEELFMTAMD 220944Z 2209/2309 31020G35KT 9999 NSC BECMG 2214/2216 30015G25KT BECMG 2303/2306 34010KT
    MERIGNACLFBD221100Z 2212/2318 27015KT 9999 BKN020 TEMPO 2212/2214 27015G25KT 3000 RADZ OVC004 PROB30 TEMPO 2214/2216 30015G25KT BECMG 2216/2218 22002KT BECMG 2222/2224 3000 BR BKN003 PROB40 2302/2308 1200 BCFG BKN003 TEMPO 2303/2307 0300 FG VV/// BECMG 2308/2310 6000 NSW OVC005 PROB40 TEMPO 2309/2318 3000 RADZ OVC003 PROB30 2312/2318 2500 BR BKN002 TX14/2214Z TN09/2306Z
    NANTES ATLANTIQUELFRS221100Z 2212/2318 28025G40KT 9999 BKN019 BECMG 2212/2213 28015G30KT BECMG 2214/2216 30012KT BECMG 2221/2223 VRB03KT PROB30 TEMPO 2223/2301 2800 BR BKN007 BECMG 2301/2303 19010KT BECMG 2303/2305 4000 -DZ BKN006 TEMPO 2305/2318 2500 -RADZ BKN004
    NAPOLEON BONAPARTELFKJ220800Z 2209/2309 04004KT CAVOK BECMG 2209/2211 24006KT TEMPO 2212/2215 9999 SCT050 BECMG 2217/2219 VRB04KT BKN033
    PARIS CHARLES DE GAULLELFPG221100Z 2212/2318 24010KT 4000 -RA SCT004 BKN010 PROB40 TEMPO 2212/2213 32015G25KT 1400 RA SCT012CB BKN015 BECMG 2213/2214 9999 NSW BKN020 BECMG 2221/2223 BKN012 TEMPO 2307/2318 4000 -RADZ BKN005 TX12/2212Z TN06/2306Z
    PARIS ORLYLFPO221100Z 2212/2318 25010G20KT 9999 BKN012 TEMPO 2212/2214 4000 -RADZ BKN007 PROB40 TEMPO 2212/2214 27017G32KT 2500 RA BKN004 SCT017TCU BECMG 2213/2216 33012KT SCT014 BKN022 BECMG 2223/2302 22005KT BECMG 2306/2308 BKN008 TEMPO 2308/2312 3000 -RADZ BKN005
    PLEURTUITLFRDAMD 221310Z 2213/2312 30015G25KT 9999 BKN013 BECMG 2213/2215 29013KT BKN020 BECMG 2219/2221 20008KT BECMG 2302/2304 20015KT OVC008 TEMPO 2303/2312 20015G25KT TEMPO 2303/2309 4000 RADZ BKN004 BECMG 2310/2312 BKN012 TEMPO 2309/2312 4000 RADZ BKN007
    PORETTALFKB220800Z 2209/2309 10006KT 9999 FEW030 OVC250 TEMPO 2213/2217 BKN060 BECMG 2219/2221 26004KT TEMPO 2219/2222 BKN026 TX15/2213Z TN08/2304Z
    PROVENCELFMLAMD 221231Z 2212/2315 30020KT CAVOK TEMPO 2212/2223 31025G35KT FEW050 BECMG 2300/2302 32025KT TEMPO 2302/2306 32031G41KT SCT025 BECMG 2308/2310 32020KT TX17/2213Z TN10/2306Z
    RIVESALTESLFMPAMD 220943Z 2209/2309 30030KT 9999 BKN040 TEMPO 2209/2304 32030G45KT BECMG 2304/2306 32015G25KT
    SAINT EXUPERYLFLL221100Z 2212/2318 18010KT 9999 BKN035 TEMPO 2212/2221 -RA BECMG 2216/2218 30010KT PROB40 TEMPO 2222/2308 BKN012
    ST JACQUESLFRN221100Z 2212/2312 32020G35KT 9999 BKN020 TEMPO 2212/2213 5000 SHRA BKN012 BECMG 2213/2215 30010KT BECMG 2219/2221 20005KT BECMG 2302/2304 20012KT BKN008 TEMPO 2303/2305 4000 RA TEMPO 2305/2309 3000 RADZ BKN004 BECMG 2310/2312 BKN012 TEMPO 2309/2312 4000 RADZ BKN007
    TILLELFOB221100Z 2212/2312 34007KT 9999 BKN040 PROB30 2216/2305 BKN012 BECMG 2218/2220 27010KT BECMG 2307/2309 18010KT OVC013 TEMPO 2309/2312 2000 DZRA OVC006
    TOUSSUS LE NOBLELFPN221100Z 2212/2221 25010G20KT 9999 BKN012 TEMPO 2212/2214 4000 -RADZ BKN007 PROB40 TEMPO 2212/2214 27017G32KT 2500 RA BKN004 SCT017TCU BECMG 2213/2216 33012KT BKN020
    VAL DE LOIRELFOT221100Z 2212/2312 24020G30KT 9999 BKN020 TEMPO 2212/2216 26020G35KT 2500 RA BKN007 BECMG 2216/2218 30010KT BKN030 BECMG 2221/2224 20003KT TEMPO 2300/2306 BKN004 TEMPO 2306/2312 4000 -RA BKN008

    Goto METARs

     

    Benelux - 22 Jan 2018 - 1417 UTC

    BRUSSELS NATLEBBR221104Z 2212/2318 29008KT 9999 FEW020 SCT040 BECMG 2307/2309 21012KT TEMPO 2315/2318 4500 -RADZ SCT005 BKN010
    BRUSSELS SOUTHEBCI221104Z 2212/2318 29008KT 9999 FEW020 SCT040 PROB30 TEMPO 2302/2308 BKN004 BECMG 2307/2309 21011KT TEMPO 2315/2318 4500 -RADZ SCT005 BKN010
    DEURNEEBAW221100Z 2212/2221 27007KT 9999 SCT040
    LIEGEEBLG221104Z 2212/2318 29007KT 9999 FEW020 SCT040 PROB30 TEMPO 2302/2308 BKN007 BECMG 2308/2310 21011KT TEMPO 2316/2318 4500 -RADZ SCT005 BKN010
    OOSTENDEEBOS221104Z 2212/2318 30010KT 9999 FEW020 SCT040 TEMPO 2216/2221 30015G25KT BECMG 2301/2303 23010KT BECMG 2308/2310 23015G25KT TEMPO 2311/2314 4500 -RADZ SCT010 BKN014 PROB30 TEMPO 2314/2318 SCT005 BKN010
    EINDHOVENEHEH221155Z 2212/2318 28008KT 9999 FEW010 BKN040 BECMG 2311/2313 20015KT SCT010 BKN015 TEMPO 2315/2318 3000 -RADZ SCT005 BKN010
    EELDEEHGGCOR 221357Z 2213/2318 27010KT 9999 SCT020 BKN040 TEMPO 2213/2215 BKN010 BECMG 2302/2305 23007KT PROB30 2302/2309 4000 BR BKN005 BECMG 2308/2310 20012KT BECMG 2312/2315 7000 RADZ BKN012 TEMPO 2315/2318 4000 DZ BKN006
    MAASTRICHTEHBK221109Z 2212/2318 27008KT 9999 SCT020 BKN040 BECMG 2309/2312 21013G23KT BECMG 2315/2318 7000 RADZ BKN012 PROB40 TEMPO 2316/2318 4000 DZ
    ROTTERDAMEHRD221101Z 2212/2318 29012KT 9999 FEW020 BKN045 BECMG 2302/2305 20007KT PROB30 2303/2309 6000 BECMG 2310/2313 20017KT 7000 RADZ BKN015 BECMG 2314/2317 4000 BR -DZ BKN006 PROB40 TEMPO 2316/2318 2000 DZ
    SCHIPHOLEHAM221101Z 2212/2318 29012KT 9999 FEW020 BKN045 BECMG 2302/2305 20007KT PROB30 2303/2309 6000 BECMG 2310/2313 20017KT 7000 RADZ BKN015 BECMG 2314/2317 4000 BR -DZ BKN006 PROB40 TEMPO 2316/2318 2000 DZ
    LUXEMBOURGELLX221100Z 2212/2318 27008KT 9999 SCT008 BKN020 TEMPO 2212/2217 4000 RADZ SCT004 BKN007 BECMG 2220/2224 SCT004 BKN008 TEMPO 2300/2309 4000 BR SCT002 BKN004 BECMG 2304/2308 20008KT TEMPO 2312/2318 4000 RA SCT003 BKN005

    Goto METARs

     

    Austria - 22 Jan 2018 - 1417 UTC

    GRAZ INTLLOWG221115Z 2212/2312 16006KT 9999 FEW050 BKN070 TX08/2312Z TNM02/2306Z
    INNSBRUCKLOWI221115Z 2212/2312 27007KT 9999 -RA SCT020 BKN050 TX04/2312Z TN01/2223Z TEMPO 2212/2224 30010G20KT 3000 RA BKN015 PROB40 TEMPO 2212/2222 1500 RA BR VV006 BECMG 2222/2224 VRB02KT 1500 BCFG BKN005 PROB40 2302/2312 0300 FG VV002
    KLAGENFURT WORTHERSEELOWK221115Z 2212/2312 VRB02KT 9999 FEW050 SCT070 TX06/2312Z TNM02/2303Z
    LINZ INTLLOWLAMD 221326Z 2213/2312 08006KT 5000 BR SCT010 BKN030 TX04/2312Z TNM01/2213Z TEMPO 2213/2302 2000 RASN SCT003 BKN006 PROB30 TEMPO 2213/2218 FZRA BECMG 2300/2302 27010KT 9999 -RA SCT010 BKN020
    SALZBURGLOWS221115Z 2212/2312 15008KT 9999 -RA SCT015 BKN035 TX06/2216Z TN00/2212Z TEMPO 2212/2215 4000 RA BKN014 BECMG 2214/2216 29008KT TEMPO 2218/2308 29012G22KT 3500 SHRA SCT007 BKN014 PROB30 TEMPO 2303/2306 2500 RASN BKN007 BECMG 2308/2310 NSW
    VIENNA SCHWECHATLOWW221115Z 2212/2318 14006KT CAVOK TX04/2315Z TNM00/2302Z BECMG 2216/2218 8000 -SN FEW010 BKN030 OVC070 TEMPO 2220/2303 2000 SN BKN008 OVC020 PROB30 TEMPO 2303/2306 1200 -FZRA BR BKN005 BECMG 2306/2308 32012KT 8000 -RA SCT010 BKN025 FM231600 21005KT 9999 BKN045
    W NEUSTADT DIAMOND HQLOAN221125Z 2212/2221 13005KT 9999 FEW020 SCT030 BKN100 BECMG 2215/2218 8000 -SN FEW010 BKN030 OVC060
    ZELTWEGLOXZ221115Z 2212/2221 VRB03KT 9999 FEW015 BKN050 TEMPO 2212/2218 27010KT 3000 -SN BR SCT009 OVC020 PROB30 TEMPO 2218/2221 1500 SHSN VV010

    Goto METARs

     

    Switzerland - 22 Jan 2018 - 1417 UTC

    APLNACHLSMA 
    BASELLFSB221100Z 2212/2312 26010G20KT 9999 BKN025 BKN060 PROB40 TEMPO 2212/2214 4000 RA BKN014 TEMPO 2214/2218 25015G30KT -SHRA FEW030TCU PROB30 TEMPO 2214/2217 26020G40KT 4000 SHRA FEW030CB BECMG 2302/2304 23007KT
    BERNLSZB221125Z 2212/2221 26005KT 8000 -RA SCT020 BKN035 PROB40 TEMPO 2213/2215 24015G25KT 4000 +RA BKN005
    BUOCHSLSZC221125Z 2212/2221 07006KT 9999 -RA FEW010 BKN050 TEMPO 2212/2221 3500 BKN008 PROB40 TEMPO 2212/2221 2500 +RA
    DUBENDORFLSMD 
    EMMENLSME 
    GALLEN-ALTENRHEINLSZR221125Z 2212/2221 VRB03KT 6000 -RA SCT020 BKN035 TEMPO 2212/2218 24015G30KT 4000 +RA BKN005
    GENEVALSGG221125Z 2212/2318 23010KT 6000 -RA FEW006 SCT014 BKN030 TX10/2215Z TN03/2306Z TX10/2315Z TEMPO 2212/2218 23015G25KT 4500 RA BECMG 2220/2223 NSW BECMG 2309/2312 FEW030 SCT050
    GRENCHENLSZG221125Z 2212/2221 25016KT 3000 -RA BR SCT008 OVC014 TEMPO 2212/2220 25022G32KT TEMPO 2212/2220 2500 RA BKN008 PROB40 TEMPO 2212/2215 +SHRA FEW015TCU
    LES EPLATURESLSGC221125Z 2212/2221 24010KT 6000 -RA BKN006 OVC014 TEMPO 2213/2218 24020G35KT 4000 RA
    LOCARNOLSZL221125Z 2212/2221 11006KT 9999 FEW030 BKN070
    LUGANOLSZA221125Z 2212/2221 VRB03KT 9999 SCT060
    MEIRINGENLSMM 
    PAYERNELSMP 
    SAMEDANLSZSAMD 221316Z 2213/2221 VRB01KT 1500 SN BKN014 TX01/2213Z TEMPO 2211/2218 6000 FEW009 SCT030 BKN050 TEMPO 2212/2221 0700 SN VV003
    SIONLSGS221125Z 2212/2221 VRB03KT 7000 -RA SCT010 BKN030 TEMPO 2213/2221 4000 RA
    ZURICH-KLOTENLSZH221125Z 2212/2318 23010KT 8000 SCT012 BKN017 TX08/2216Z TN04/2306Z TX09/2314Z TEMPO 2212/2218 24015G25KT RA BKN012 TEMPO 2212/2218 4000 +RA BKN005 BECMG 2218/2221 NSW

    Goto METARs

     

    Espana - 22 Jan 2018 - 1417 UTC

    ALICANTELEALAMD 221230Z 2212/2312 28011KT CAVOK TX23/2214Z TN11/2307Z TEMPO 2212/2214 28016G26KT PROB40 TEMPO 2214/2218 07008KT
    ALMERIALEAM220800Z 2209/2309 VRB03KT CAVOK TX19/2213Z TN11/2307Z PROB30 TEMPO 2218/2306 2000 BCFG BKN003
    AVILESLEAS220800Z 2209/2309 28009KT 9999 FEW030 TX17/2214Z TN07/2306Z PROB30 TEMPO 2303/2308 3000 BR
    BADAJOZLEBZAMD 221300Z 2213/2312 VRB03KT CAVOK TX14/2215Z TN06/2306Z TEMPO 2213/2215 2500 BR BKN003 TEMPO 2222/2310 1500 BR BKN002 PROB40 TEMPO 2300/2310 0200 FG VV001
    BARCELONALEBL221100Z 2212/2312 22007KT 9999 FEW030 TX19/2214Z TN09/2307Z PROB40 TEMPO 2218/2222 04008KT BECMG 2222/2224 33010KT
    BILBAOLEBB221100Z 2212/2312 12005KT 9999 SCT035 BKN045 TX17/2214Z TN07/2306Z TEMPO 2215/2306 30010KT 3000 RA BKN010 PROB40 TEMPO 2303/2308 3000 BR BKN010
    GRANADALEGR220800Z 2209/2309 VRB03KT CAVOK TX20/2215Z TN03/2307Z
    IBIZALEIB220800Z 2209/2309 VRB03KT 9999 FEW030 TX20/2213Z TN09/2307Z BECMG 2210/2212 26007KT
    JEREZLEJR221100Z 2212/2312 35005KT CAVOK TX18/2215Z TN04/2306Z PROB40 TEMPO 2306/2310 3000 BR PROB30 TEMPO 2306/2309 0200 FG VV001
    LEONLELN221100Z 2212/2221 VRB03KT 3000 BR OVC003 PROB40 TEMPO 2212/2215 0400 FZFG
    MADRIDLEMD221100Z 2212/2318 VRB03KT CAVOK TX17/2315Z TN02/2307Z PROB40 TEMPO 2222/2308 02006KT
    MALAGALEMG221100Z 2212/2312 29011KT CAVOK TX20/2213Z TN13/2307Z BECMG 2213/2215 13006KT BECMG 2218/2220 28012KT PROB40 TEMPO 2220/2224 28015G25KT
    MENORCALEMH220800Z 2209/2309 VRB03KT 9999 FEW025 TX18/2213Z TN09/2307Z BECMG 2210/2212 25007KT
    MURCIALELC221100Z 2212/2312 25010KT CAVOK TX22/2214Z TN12/2307Z BECMG 2220/2222 32006KT
    PALMA MALLORCALEPA221100Z 2212/2312 30010KT 9999 FEW030 TX20/2213Z TN07/2307Z BECMG 2212/2214 24009KT BECMG 2222/2224 VRB04KT
    REUSLERS220800Z 2209/2309 29008KT 9999 FEW030 TX20/2214Z TN09/2307Z TEMPO 2209/2220 30014G26KT TEMPO 2220/2301 30022G36KT PROB30 TEMPO 2221/2301 30026G43KT
    SANTANDERLEXJ220800Z 2209/2309 24009KT 9999 BKN035 TX17/2214Z TN09/2306Z PROB40 TEMPO 2215/2303 30010KT 3000 RA BKN010 PROB40 TEMPO 2303/2308 3000 BR BKN010
    SANTIAGOLEST221100Z 2212/2312 23008KT 8000 BKN015 TX12/2214Z TN06/2306Z TEMPO 2212/2312 3000 -RADZ BKN005 TEMPO 2212/2310 1500 -RADZ BKN002 TEMPO 2212/2310 0600 DZ VV001 TEMPO 2221/2309 0350 FG VV001 TEMPO 2221/2309 0150 FG VV001
    SEVILLALEZL220800Z 2209/2309 04004KT CAVOK TX20/2215Z TN06/2307Z
    VALENCIALEVC221100Z 2212/2312 25006KT CAVOK TX25/2214Z TN06/2307Z TEMPO 2214/2218 10008KT
    VALLADOLIDLEVD221100Z 2212/2312 VRB05KT 9999 BKN010 TX10/2215Z TN00/2306Z TEMPO 2300/2308 0100 FG PROB40 TEMPO 2308/2312 1500 BR BKN004
    VITORIALEVT221100Z 2212/2312 VRB05KT 9999 SCT025 TX14/2214Z TN05/2306Z TEMPO 2218/2308 32010KT 3000 -RA BKN005 BKN010 PROB40 TEMPO 2300/2308 1500 -RA BCFG BKN005
    ZARAGOZALEZG221100Z 2212/2312 29014KT 9999 FEW040 TX17/2214Z TN08/2307Z TEMPO 2212/2218 30018G30KT
    GRAN CANARIAGCLP220800Z 2209/2309 02013KT 9999 FEW020 TX23/2214Z TN15/2306Z
    LANZAROTEGCRR220800Z 2209/2309 02010KT 9999 FEW015 TX21/2214Z TN14/2306Z BECMG 2210/2212 09010KT BECMG 2218/2220 02008KT
    TENERIFE NORTEGCXOAMD 221317Z 2213/2309 12010KT CAVOK TX19/2214Z TN11/2306Z TEMPO 2213/2309 VRB05KT
    TENERIFE SURGCTS220800Z 2209/2309 05011KT CAVOK TX24/2214Z TN15/2306Z BECMG 2210/2212 11014KT BECMG 2218/2220 04009KT

    Goto METARs

     

    Portugal - 22 Jan 2018 - 1417 UTC

    FAROLPFR221100Z 2212/2312 VRB03KT CAVOK BECMG 2212/2215 21008KT BECMG 2216/2218 33007KT BECMG 2221/2224 VRB03KT
    LISBOALPPT221100Z 2212/2318 34013KT 9999 BKN015 BECMG 2212/2215 SCT020 BECMG 2222/2224 34008KT SCT012 TEMPO 2303/2308 BKN008 BECMG 2308/2311 03010KT SCT020 BECMG 2315/2317 34010KT CAVOK
    MADEIRALPMA221100Z 2212/2312 02013KT 9999 SCT016 BECMG 2216/2218 SCT015 BKN030
    PONTA DELGADALPPD221100Z 2212/2312 21012KT 9999 SCT018 BKN040 PROB40 TEMPO 2212/2312 6000 -RADZ SCT006 BKN012
    PORTOLPPR221100Z 2212/2312 29007KT 9999 SCT012 BKN025 PROB40 TEMPO 2212/2216 5000 DZ BR SCT004 BKN008 BECMG 2221/2224 08005KT 8000 SCT002 BKN004 PROB40 2300/2308 VRB03KT 0300 FG VV001 BECMG 2309/2311 9999 SCT008 BKN015
    PORTO SANTOLPPS221100Z 2212/2318 09013KT 9999 SCT014 BECMG 2214/2217 SCT015 BKN030
    SANTA MARIALPAZ221100Z 2212/2318 19013KT 9999 FEW018 BKN040 PROB30 TEMPO 2212/2318 6000 -RADZ SCT006 BKN012
    SINTRA MILITARLPST221104Z 2212/2221 36010KT 9999 BKN020 BECMG 2212/2214 SCT025 BECMG 2219/2221 3000 BR BKN004

    Goto METARs

     

    Italia - 22 Jan 2018 - 1417 UTC

    ALGHEROLIEA221100Z 2212/2312 32015KT 9999 FEW030 TEMPO 2212/2216 31018G28KT
    BARILIBD221100Z 2212/2312 33015G25KT 9999 SCT030 BECMG 2215/2217 VRB05KT
    BERGAMO ORIO AL SERIOLIME221100Z 2212/2312 VRB05KT CAVOK
    BOLOGNALIPE221100Z 2212/2312 VRB05KT 9999 SCT030
    CAPODICHINOLIRN221100Z 2212/2312 04008KT 9999 SCT030 TEMPO 2303/2306 RA
    CATANIA FONTANAROSSALICC221100Z 2212/2312 08006KT 9999 FEW030
    CIAMPINOLIRA221100Z 2212/2312 04006KT 9999 SCT030 TEMPO 2300/2303 RA
    CROTONELIBC221100Z 2212/2312 35016KT 9999 FEW030 TEMPO 2309/2312 SHRA
    ELMASLIEE221100Z 2212/2312 31020G30KT 9999 SCT030 BECMG 2300/2302 31010KT
    FALCONARALIPY221100Z 2212/2312 18012KT 9999 SCT030 BECMG 2222/2224 VRB05KT
    FIUMICINOLIRF221100Z 2212/2318 14013KT 9999 SCT030 BECMG 2221/2223 06007KT TEMPO 2300/2303 RA
    GENOVA SESTRILIMJ221100Z 2212/2312 04008KT CAVOK
    LAMPEDUSALICD221100Z 2212/2312 35020G30KT 9999 FEW030
    LINATELIML221100Z 2212/2312 VRB05KT CAVOK
    MALPENSALIMC221100Z 2212/2318 VRB05KT CAVOK
    OLBIA COSTA SMERALDALIEO221100Z 2212/2312 27018KT 9999 FEW030 TEMPO 2212/2220 25020G30KT BECMG 2308/2310 03008KT
    PALERMOLICJ221100Z 2212/2312 28014KT 9999 FEW030
    PESCARALIBP221100Z 2212/2312 19010KT 9999 SCT030 BECMG 2218/2220 VRB05KT
    PISALIRP221100Z 2212/2312 12006KT 9999 SCT030 SCT060 PROB30 TEMPO 2300/2306 4000 BR
    REGGIO CALABRIALICR221100Z 2212/2312 02013KT 9999 SCT030 BECMG 2218/2220 VRB05KT TEMPO 2306/2312 RA
    TORINOLIMF221100Z 2212/2312 30005KT CAVOK
    URBELIRU221100Z 2212/2221 12006KT CAVOK
    VENEZIA TESSERALIPZ221100Z 2212/2318 02010KT 9999 SCT030

    Goto METARs

     

    Baltic - 22 Jan 2018 - 1417 UTC

    LENNART MERI TALLINNEETN221130Z 2212/2312 25010KT 3000 SN BKN010 BKN020 TEMPO 2212/2221 1000 +SHSN BR BKN004 BKN015CB TEMPO 2212/2215 -FZRA PROB40 TEMPO 2215/2218 -FZRA BECMG 2220/2222 30008KT 9999 NSW PROB40 TEMPO 2222/2306 2000 SHSN BKN007 SCT012CB
    TARTUEETU 
    RIGA INTLEVRA221100Z 2212/2312 20007KT 8000 OVC010 TEMPO 2212/2218 3000 SHSN BKN005 BKN010CB BECMG 2218/2220 BKN015 TEMPO 2220/2306 BKN010
    LIEPAJA INTLEVLA220802Z 2209/2309 19007KT 7000 BKN010 TEMPO 2209/2218 1500 SHSN BR BKN005 BKN010CB BECMG 2218/2220 BKN015
    KAUNAS INTLEYKA221107Z 2212/2312 19008KT 7000 BKN010 TEMPO 2212/2218 BKN005 TEMPO 2218/2306 3000 BR BKN003 TEMPO 2306/2309 BKN003 BECMG 2309/2311 SCT015
    SIAULIAI INTLEYSA221101Z 2212/2221 20012KT 7000 OVC008 TEMPO 2212/2216 BKN004 TEMPO 2216/2221 BKN003
    PALANGA INTLEYPA221104Z 2212/2312 18014KT 7000 BKN005 TEMPO 2212/2221 1500 SHSN BR BKN003 BKN010CB TEMPO 2221/2224 BKN015 TEMPO 2300/2306 3000 BR
    VILNIUS INTLEYVI221102Z 2212/2312 VRB05KT 6000 BKN010 TEMPO 2212/2215 BKN005 TEMPO 2215/2220 3000 BR BKN004 TEMPO 2300/2307 3000 BR BKN003 BECMG 2308/2310 NSC
    KHRABROVOUMKK221100Z 2212/2312 17003G08MPS 4000 BR OVC004 TEMPO 2215/2224 0300 FZFG VV002 BECMG 2300/2302 BKN010

    Goto METARs

     

    Nordic - 22 Jan 2018 - 1417 UTC

    DENMARK
    AALBORGEKYT221130Z 2212/2312 13010KT 8000 SCT006 BKN015 TEMPO 2212/2312 3000 -SNRASG BR BKN006
    AARHUSEKAH221057Z 2212/2312 14010KT 8000 BKN008 TEMPO 2212/2309 4000 BR SNSG SCT010 BKN015 PROB40 2309/2312 4000 FZRA BKN004
    BILLUNDEKBI221057Z 2212/2312 13010KT 5000 BR BKN006 TEMPO 2212/2304 1500 -SN BR BKN004 PROB40 2304/2309 2000 FZRA BKN004 PROB40 2309/2312 0400 FG VV001
    BORNHOLM RONNEEKRN221102Z 2212/2221 17014KT 9999 BKN015
    ESBJERGEKEB221136Z 2212/2221 12010KT 8000 BKN006 TEMPO 2212/2221 1500 -SN BR BKN004
    KARUPEKKA221130Z 2212/2312 14010KT 8000 SCT008 BKN015 TEMPO 2212/2312 2500 BR -SNRASG BKN004 PROB40 2309/2312 FZRA
    KASTRUP COPENHAGENEKCH221059Z 2212/2312 15012KT 9999 BKN018 TEMPO 2212/2312 BKN012
    ODENSEEKODAMD 221329Z 2212/2217 14010KT 8000 BKN015 TEMPO 2213/2215 1500 -SN BR BKN006 TEMPO 2215/2217 4000 -SN BR FEW008 BKN012
    ROSKILDEEKRK221102Z 2212/2221 15012KT 9999 BKN010 TEMPO 2212/2221 BKN015
    SKRYDSTRUPEKSP221113Z 2212/2312 12012KT 6000 SCT005 BKN010 TEMPO 2212/2302 1800 -SN BR BKN004 TEMPO 2302/2306 1800 FZRADZ BKN004 TEMPO 2306/2312 0500 FG VV002
    VAMDRUPEKVDAMD 221355Z 2212/2217 13010KT 6000 BKN006 TEMPO 2213/2217 2500 -SN BR BKN004
    SWEDEN
    ANGELHOLMESTA221319Z 2213/2221 13008KT 9999 BKN018 TEMPO 2213/2215 BKN012
    ARE OSTERSUNDESNZAMD 221307Z 2213/2221 VRB02KT 8000 -SN BKN004 TEMPO 2213/2221 2500 BKN008
    GOTHENBURG CITYESGP 
    GOTHENBURG LANDVETTERESGGAMD 221321Z 2213/2306 12006KT 9999 BKN015 PROB40 2217/2306 4000 BR BKN005
    HALMSTADESMT221319Z 2213/2221 13008KT 9999 BKN015 TEMPO 2213/2215 BKN012
    KALMARESMQAMD 221255Z 2212/2218 VRB02KT 9999 SCT013 BKN040 TEMPO 2212/2218 4000 -SN BKN002
    KIRUNAESNQAMD 221307Z 2213/2221 VRB02KT CAVOK
    LULEAESPACOR 221310Z 2213/2221 36005KT 9999 -SN FEW010 BKN035 RMK MIL
    MALMOESMSAMD 220734Z 2207/2306 14010KT 9999 BKN012 TEMPO 2207/2212 BKN015 BECMG 2212/2215 BKN015 TEMPO 2215/2306 BKN012
    SAABESSLCOR 221315Z 2213/2221 18003KT 9999 BKN015 TEMPO 2213/2221 BKN009 RMK MIL
    STOCKHOLM ARLANDAESSAAMD 221349Z 2213/2312 25003KT 9999 FEW007 BKN020 PROB40 2213/2310 BKN007 BECMG 2310/2312 18010KT
    STOCKHOLM BROMMAESSBAMD 221401Z 2214/2221 27003KT 9999 OVC004 PROB40 2214/2221 SCT004 BKN020
    STOCKHOLM SKAVSTAESKNAMD 221305Z 2213/2312 VRB02KT 9999 BKN015 TEMPO 2213/2306 BKN013 BECMG 2306/2308 18010KT
    UMEAESNUAMD 221307Z 2213/2221 35008KT 9999 BKN040 PROB40 2213/2214 BKN013
    VISBYESSVCOR 221300Z 2213/2221 24003KT 9999 NSW SCT015 TEMPO 2215/2221 3000 SHSN BKN007
    NORWAY
    ANDOYAENAN2212/2312 18012KT 9999 FEW010 BKN030 TEMPO 2212/2215 2000 SHSN VV012 BECMG 2309/2312 10008KT
    ALTAENAT221100Z 2212/2221 15010KT 9999 FEW030 SCT060
    AROENHF221100Z 2212/2221 18008KT CAVOK TEMPO 2212/2221 19015G25KT
    BARDUFOSSENDU2212/2312 VRB05KT 9999 FEW025 SCT050
    BODOENBO2212/2312 09025KT CAVOK
    EVENESENEV221100Z 2212/2221 15008KT 9999 BKN050
    FLESLANDENBR2212/2312 13008KT 9999 FEW030 BKN060 BECMG 2218/2221 15015G25KT TEMPO 2218/2304 2000 SN VV008 TEMPO 2305/2312 4000 RADZ BKN008
    FLOROENFL221100Z 2212/2221 10015KT 9999 FEW020 BKN080 PROB30 TEMPO 2215/2221 3000 -SN VV014
    GARDERMOENENGM2212/2312 VRB05KT 9999 FEW004 BKN012 TEMPO 2212/2216 3000 -SN OVC004 PROB40 2216/2303 0500 FZFG VV002 BECMG 2302/2305 4000 -SN BKN008 TEMPO 2303/2312 1200 SN VV002
    KARMOYENHD221100Z 2212/2221 13020G30KT 9999 FEW030 BKN050 PROB30 TEMPO 2212/2221 3000 -SN VV014
    KJEVIKENCN221100Z 2212/2221 10008KT 8000 -SN FEW006 BKN018 TEMPO 2212/2221 2500 -SG SNRA BKN006
    LANGNESENTC2212/2312 20018KT 9999 SCT040 BKN060 BECMG 2221/2223 20008KT
    LEIRINENFB 
    LONGYEARENSB2212/2312 13010KT 9999 FEW025 SCT050
    NARVIK/FRAMNESENNK 
    ROROSENRO221100Z 2212/2219 VRB05KT 9000 SCT003 PROB40 2212/2219 0800 FZFG VV002
    RYGGEENRY2212/2312 08005KT 9999 SCT010 BKN025 TEMPO 2216/2303 BKN008 BECMG 2303/2306 16010KT 4000 -SN BKN007 TEMPO 2304/2312 1200 SN VV007
    SOLAENZV2212/2312 13015KT 9999 FEW030 BKN060 TEMPO 2212/2312 15018G28KT PROB40 TEMPO 2220/2305 3000 -SN VV012 TEMPO 2309/2312 4000 RADZ BKN008
    VAERNESENVA2212/2312 11007KT CAVOK
    VIGRAENAL221100Z 2212/2221 13015KT CAVOK
    FINLAND
    HELSINKIEFET 
    TAMPERE PIRKKALAEFTP221125Z 2212/2312 05005KT 9999 SCT030 BKN080 PROB30 2212/2215 6000 -SN
    TURKUEFTU221131Z 2212/2312 30006KT 9999 SCT007 BKN015 TEMPO 2212/2219 5000 -SN BKN007
    ICELAND
    AKUREYRIBIAR221035Z 2212/2312 15007KT 9999 FEW015 SCT025 BKN035 TX01/2306Z TNM02/2212Z BECMG 2216/2219 12017KT PROB40 TEMPO 2221/2312 11018G32KT 4000 -SN OVC015
    EGILSSTADIRBIEG221035Z 2212/2312 02010KT 9999 SCT017 BKN025 OVC035 TX02/2303Z TNM03/2212Z TEMPO 2212/2221 3000 SHSN OVC009 BECMG 2212/2215 10015G25KT PROB40 TEMPO 2220/2312 10018G35KT 3000 SNRA BKN008 OVC015
    KEFLAVIK INTLBIKF221035Z 2212/2312 08025G35KT 9999 -RASN BKN025 OVC050 TX03/2303Z TNM01/2309Z BECMG 2212/2215 09033G45KT RA BKN015 OVC025 TEMPO 2217/2302 3000 SNRA BKN010 OVC015 PROB40 TEMPO 2218/2223 10037G55KT BECMG 2223/2302 12015KT BECMG 2303/2306 9999 NSW SCT015 BKN025
    REYKJAVIKBIRK221035Z 2212/2312 09025G35KT 9999 -RASN BKN040 OVC060 TX04/2303Z TN02/2212Z BECMG 2213/2216 10033G45KT RA BKN015 OVC030 TEMPO 2217/2303 3000 SNRA BKN010 OVC015 PROB40 TEMPO 2218/2223 11037G55KT BECMG 2223/2302 12015KT BECMG 2303/2306 9999 NSW SCT020 BKN030
    GREENLAND
    ILULISSAT JAKOBSHAVNBGJN221129Z 2212/2221 36012KT 9999 DRSN FEW200 BECMG 2212/2215 09010KT
    KANGERLUSSUAQ S.STROMFBGSF221058Z 2212/2318 08010KT 9999 SCT200
    KULUSUKBGKK 
    NARSARSUAQBGBW221129Z 2212/2220 06035G50KT 9999 BKN100 TEMPO 2212/2220 06035KT BKN080
    NUUK GODTHAABBGGH221129Z 2212/2221 12008KT 9999 SCT150
    PITUFFIK THULEBGTL221000Z 2210/2316 12009KT 9999 SKC QNH2974INS WND 090V160 TXM17/2306Z TNM25/2221Z
    SISIMIUT HOLSTEINSBORGBGSS221203Z 2212/2221 06010KT 9999 FEW200

    Goto METARs

     

    Other Airports - 22 Jan 2018 - 1417 UTC

    IRELAND
    DUBLINEIDW221100Z 2212/2312 26017KT 9999 FEW020 BKN040 BECMG 2215/2217 23012KT BECMG 2220/2222 19012KT BECMG 2304/2307 21017KT BECMG 2309/2311 24022G33KT
    SHANNONEINN221100Z 2212/2312 23010KT 9999 FEW015 BKN040 PROB30 TEMPO 2212/2215 5000 -DZ BKN014 BECMG 2217/2219 16012KT TEMPO 2222/2224 17015G25KT -RA BKN012 BECMG 2300/2303 BKN012 PROB40 TEMPO 2300/2309 -RA BKN009 TEMPO 2301/2303 23012KT BECMG 2309/2311 24020G32KT SCT012 BKN020
    CORKEICK221100Z 2212/2312 24012KT 9999 BKN020 BECMG 2219/2221 21015KT 3000 -RADZ BKN005 TEMPO 2222/2308 22018G28KT 1200 DZ BKN002 PROB40 TEMPO 2300/2308 0300 FG BKN001 BECMG 2307/2309 24017G28KT 7000 SCT005 BKN012 BECMG 2309/2312 9999 SCT012 BKN020
    IRELAND WESTEIKN221100Z 2212/2312 25015KT 9999 FEW015 BKN030 BECMG 2215/2218 19015KT BECMG 2218/2221 3000 -RA BKN005 TEMPO 2300/2308 0800 FG RA BKN001 BECMG 2305/2307 21018G30KT BECMG 2307/2309 24020G32KT 9999 NSW SCT005 BKN012
    POLAND
    LECHA WALESYEPGD221130Z 2212/2312 16008KT 7000 BKN010 TEMPO 2212/2216 4000 BR BKN004 BECMG 2216/2218 SCT015 PROB40 TEMPO 2218/2308 3000 BR BKN005
    BALICEEPKK221130Z 2212/2312 05008KT 7000 BKN025 TEMPO 2212/2215 BKN010 TEMPO 2215/2312 4000 BR BKN010 PROB30 TEMPO 2216/2307 1200 BR BKN004
    PYRZOWICEEPKT221130Z 2212/2312 12008KT 7000 BKN020 TEMPO 2212/2312 4000 BR BKN010 PROB30 TEMPO 2216/2307 1200 BR BKN004
    MODLINEPMO221130Z 2212/2312 13007KT 9999 BKN016 TEMPO 2212/2312 BKN010 PROB40 TEMPO 2212/2218 SCT020 PROB40 2300/2307 3000 BR BKN005
    LAWICAEPPO221130Z 2212/2312 15012KT CAVOK PROB40 TEMPO 2300/2310 2500 -SN BR BKN004 BKN010 BECMG 2303/2306 BKN011
    WARSAW CHOPINEPWA221130Z 2212/2312 13007KT 9999 BKN015 TEMPO 2212/2312 BKN010 PROB40 2300/2307 3000 BR BKN005
    GREECE
    ELEFTHERIOS VENIZELOSLGAV221100Z 2212/2312 35020G33KT 9999 SCT018 BKN035 BECMG 2218/2220 35025G35KT
    NIKOS KAZANTZAKISLGIR221100Z 2212/2312 28035KT 9999 FEW020 BKN030 PROB30 TEMPO 2212/2221 5000 RA BECMG 2215/2217 35020KT
    KOSLGKO221100Z 2212/2312 27010KT 9999 SCT010 BKN025 PROB40 TEMPO 2212/2222 5000 RA PROB30 TEMPO 2212/2221 3000 TSRA SCT010 FEW018CB BKN020 BECMG 2212/2214 30015G25KT BECMG 2216/2218 33025G35KT
    MIKONOSLGMK221100Z 2212/2221 34020KT 9999 FEW015 BKN020 PROB40 TEMPO 2212/2218 5000 RA TEMPO 2212/2221 34025G35KT
    DIAGORASLGRP221100Z 2212/2312 20010KT 9999 FEW010 BKN020 PROB40 TEMPO 2212/2224 5000 RA PROB30 TEMPO 2212/2221 3000 TSRA SCT010 FEW018CB OVC020 BECMG 2212/2214 30017KT TEMPO 2215/2224 30020G30KT
    SOUDALGSA221100Z 2212/2312 28039G49KT 9999 FEW020 SCT030 PROB30 TEMPO 2212/2215 5000 RA SCT020 BKN030 BECMG 2216/2218 35017KT
    SANTORINILGSR221100Z 2212/2312 34020KT 9999 SCT025 SCT035 PROB40 TEMPO 2212/2221 7000 RA FEW010 BKN020 TEMPO 2213/2303 34025G35KT
    MAKEDONIALGTS221100Z 2212/2312 34025G35KT 9999 FEW025 BECMG 2218/2220 34015G25KT BECMG 2222/2224 33015KT
    TURKEY
    ANTALYALTAI221040Z 2212/2312 VRB02KT 9999 FEW020CB BKN030 BECMG 2212/2215 16015KT -TSRA FEW015CB BKN025 PROB40 TEMPO 2215/2217 VRB15G25KT 4000 TSRA BECMG 2216/2220 36008KT BECMG 2220/2224 NSW BKN030 BECMG 2300/2304 SCT030 BECMG 2304/2308 34018G28KT CAVOK
    ATATURKLTBA221040Z 2212/2318 35020G35KT 9999 -SHRA SCT015 BKN025 BECMG 2222/2302 35015G25KT PROB30 TEMPO 2302/2306 -SHSNRA
    ADNAN MENDERESLTBJ221040Z 2212/2312 VRB02KT 9999 -SHRA SCT030 BKN100 TEMPO 2213/2216 SHRA BECMG 2215/2218 36014KT
    DALAMANLTBS221040Z 2212/2312 18012KT 9999 SCT025 BKN090 TEMPO 2212/2216 -SHRA BECMG 2214/2216 01009KT PROB30 TEMPO 2216/2220 -TSRA FEW020CB BKN030 BECMG 2302/2304 CAVOK
    MALTA
    LUQA INTLLMML221100Z 2212/2312 31017KT 9999 FEW018 PROB30 TEMPO 2212/2312 31017G27KT
    ISRAEL
    BEN GURIONLLBG221112Z 2212/2312 20012KT 8000 NSC TEMPO 2212/2215 23018KT 5000 HZ BECMG 2215/2217 15006KT 9999 SCT045 BECMG 2222/2224 20012KT BKN035 TEMPO 2300/2306 24018KT 6000 SHRA FEW015 SCT025TCU BKN030 TEMPO 2306/2312 -RA SCT020 BKN025 TX19/2212Z TN14/2304Z
    SDE DOVLLSD221118Z 2212/2312 22015KT 8000 NSC TEMPO 2212/2215 23020KT 5000 HZ BECMG 2215/2217 18010KT 9999 SCT045 BECMG 2222/2224 22018KT BKN035 TEMPO 2300/2306 24022G35KT 4000 SHRA FEW015 SCT025TCU BKN030 TEMPO 2306/2312 -RA SCT020 BKN025 TX18/2212Z TN14/2304Z
    MOROCCO
    AL MASSIRA INTLGMAD221100Z 2212/2318 28011KT CAVOK BECMG 2219/2222 09006KT BECMG 2312/2314 28012KT
    MOHAMMED V INTLGMMN221100Z 2212/2318 03012KT CAVOK BECMG 2218/2220 08006KT 4000 BR TEMPO 2223/2308 0300 FG BKN003 BECMG 2310/2312 33008KT 9999 SCT016
    MENARAGMMX221100Z 2212/2318 04006KT 8000 NSC
    EGYPT
    CAIRO INTLHECA221100Z 2212/2318 22012G22KT 6000 NSC TEMPO 2212/2218 4000 SA
    HURGHADA INTLHEGN221100Z 2212/2318 320012KT CAVOK
    LUXOR INTLHELX221100Z 2212/2318 32006KT CAVOK
    SHARM EL SHEIKH INTLHESH221100Z 2212/2318 33012KT 8000 NSC
    EAST EUROPE
    SOFIALBSF221100Z 2212/2312 29014KT 9999 SCT020 OVC040 TEMPO 2213/2216 4000 SN BKN013 OVC025 BECMG 2223/2301 VRB04KT 3000 BR BKN010 TEMPO 2303/2307 1200 BR BECMG 2308/2310 8000 SCT020 SCT040
    LARNACALCLK221130Z 2212/2312 22022G32KT 9999 SCT030 PROB40 TEMPO 2212/2312 5000 SHRA SCT025TCU PROB30 TEMPO 2212/2306 VRB25G35KT 2000 TSRA SCT025CB
    ZAGREBLDZA221125Z 2212/2312 23006KT CAVOK TX06/2213Z TNM03/2306Z PROB30 TEMPO 2302/2307 -FZRA BECMG 2304/2306 03006KT
    BUDAPEST LISZT FERENCLHBP221115Z 2212/2312 VRB03KT CAVOK BECMG 2216/2219 12006KT BECMG 2221/2223 BKN015 BKN030 TEMPO 2303/2310 1400 SN BR BKN004 BECMG 2305/2307 06005KT BECMG 2307/2309 VRB03KT
    LJUBLJANALJLJ221100Z 2212/2312 VRB02KT 9999 FEW040 SCT090 BECMG 2213/2215 27005KT TEMPO 2220/2312 FEW030 BKN090 BECMG 2221/2224 30004KT BECMG 2309/2311 12004KT
    RUZYNELKPR221100Z 2212/2318 17010KT 9999 SCT033 BECMG 2212/2214 BKN020 TEMPO 2214/2309 5000 -SN BR BKN013 PROB40 TEMPO 2216/2307 2500 SN BKN007 BECMG 2221/2300 27010KT BECMG 2309/2312 25014KT 8000 -RASN BKN023 TEMPO 2312/2318 25014G24KT
    HENRI COANDALROP221100Z 2212/2312 06010KT 1500 SN BR BKN005 OVC020 BECMG 2212/2214 5000 -SN SCT015 OVC030 TEMPO 2214/2217 8000 NSW BKN035 BECMG 2217/2219 VRB04KT 3000 -SN BR BKN010 OVC020 TEMPO 2220/2223 1500 -SN BR BKN002 OVC010 PROB40 TEMPO 2301/2306 0800 -SN FZFG OVC002 BECMG 2308/2310 5000 BR BKN015
    BEOGRADLYBE221100Z 2212/2312 32010KT 9999 SCT020 TX03/2213Z TNM02/2300Z BECMG 2215/2217 26005KT BECMG 2218/2220 3000 BR BECMG 2308/2310 8000 NSW
    M R STEFANIK INTLLZIB221100Z 2212/2312 12006KT CAVOK BECMG 2214/2216 9999 SCT030 BKN080 BECMG 2218/2220 -SN SCT015 OVC030 TEMPO 2222/2302 3000 SN BKN012 OVC025 PROB30 TEMPO 2302/2308 VRB02KT 1400 -FZRA BR SCT003 BKN006 BECMG 2308/2310 VRB02KT -RA
    BORYSPIL INTLUKBB221101Z 2212/2312 04004G09MPS 6000 OVC009 TEMPO 2212/2218 2000 -SN BR BKN005 TEMPO 2218/2307 1600 BR BKN004 BECMG 2307/2309 36003G08MPS TXM05/2212Z TNM13/2305Z
    PULKOVOULLI221059Z 2212/2312 28002MPS 4000 -SN BR BKN012 BKN020 TEMPO 2212/2215 03002MPS 0700 +SHSN BKN007 BKN015CB TEMPO 2215/2309 31002MPS 1000 -SHSN BR BKN004 BKN013CB TEMPO 2309/2312 30002MPS 3100 -SHSN BKN011 BKN015CB
    MURMANSKULMM221058Z 2212/2312 07003MPS 4000 BR BKN011 TEMPO 2212/2218 02003MPS 0300 -SHSN FZFG BKN002 BKN011CB BECMG 2218/2219 3100 -SHSN BR BKN011CB TEMPO 2219/2309 02003MPS 1000 SHSN BR BKN007 BKN011CB
    KHRABROVOUMKK221100Z 2212/2312 17003G08MPS 4000 BR OVC004 TEMPO 2215/2224 0300 FZFG VV002 BECMG 2300/2302 BKN010
    SHEREMETYEVOUUEE221102Z 2212/2312 24005MPS 6000 BKN011 TXM08/2212Z TNM12/2303Z TEMPO 2212/2218 3100 -SHSN BKN012CB TEMPO 2218/2306 1000 BR SCT003
    VNUKOVOUUWWAMD 221323Z 2213/2312 24005MPS 6000 BKN020 TXM08/2312Z TNM10/2302Z TEMPO 2213/2216 3100 -SHSN SCT011 SCT015CB BECMG 2219/2220 BKN005 TEMPO 2220/2306 VRB01MPS 0300 FZFG BKN002 BECMG 2308/2310 9999 BKN015



    RocketRoute Online Flight Planning. FREE trial

    ABBREVIATIONS

    -light
    +heavy
    /visual range follows
    A01autosite - no precip sensor
    A02autosite - precip sensor
    ACaltocumulus
    ACCaltocumulus castellanus
    ACSLaltocumulus standing lenticular cloud
    AMDamended
    ASaltastratus
    ASRaltimeter setting region
    AUTOautomated report
    BCpatches
    BECMGbecoming
    BKNbroken (5-7 oktas)
    BLblowing
    BLWbelow
    BRmist
    BTNbetween
    CAVOK+10KM NoCBs NoCloud -5000ft
    CBcumulonimbus cloud
    CBMAMcumulonimbus mammatus cloud
    CCcloud-cloud lightning
    CCSLcirrocumulus standing lenticular cloud
    CGcloud-ground lightning
    CHIcloud-height indicator
    CHINOsky condition at 2nd location not avail
    CIcirrus
    CIGceiling
    CITnear or over large towns
    CLDcloud
    CLRclear
    CLRDcleared contamination
    CONScontinuous
    CORcorrection
    CScirrostratus
    CUcumulus
    DRVR visibility going down
    DPdew point
    DRlow drifting
    DSduststorm
    DSNTdistant
    DUwidespread dust
    DUCdense upper cloud
    DZdrizzle
    Eeast
    EMBDembedded
    FCfunnel cloud
    FCSTforecast
    FEWfew clouds (1-2 oktas)
    FGfog
    FLflight level
    FMfrom
    FROPAfrontal passage
    FRQfrequent
    FTfeet
    FUsmoke
    FZfreezing
    FZRANOfreezing rain sensor out
    Ggust
    GRhail
    GSsmall hail
    HVYheavy
    HZhaze
    ICice crystals, in-cloud lightning
    INTSFintensifying
    IRVRinstrumented RVR
    ISOLisolated
    JTSTjet stream
    KMkilometer
    KMHkilometer per hour
    KTknots
    Lleft runway
    LANinland or over land
    LASTlast observation before break
    LCAlocally
    LDGlanding
    LSTLocal Standard Time
    LSQline squall
    LTGlightning
    LVlight and variable
    LWRlower
    Mminus
    MBmillibars
    METARaviation routine weather
    MIshallow
    MODmoderate
    MONabove or covering mountains
    MOVmoved/moving/movement
    MPSmeters per second
    MSminus
    MSLmean sea level
    MTmountains
    MTWmountain waves
    Nnorth
    N/Anot applicable
    NATnorth atlantic
    NCDno cloud detected
    NDVno directional variation
    NSWno significant weather
    NEnortheast
    NOSIGno significant change expected
    NOSPECIno SPECI reports are taken
    NWnorthwest
    NSCno significant cloud
    NSWno significant weather
    OCNLoccasional
    OVCovercast (8 oktas)
    OHDoverhead
    Pgreater than (plus)
    PEice pellets
    PK WNDpeak wind
    PNOprecipitation amount not available
    POdust/sand whirls (dust devils)
    PRpartial
    PROP30probability 30%
    PROP40probability 40%
    PRESFRpressure falling rapidly
    PRESRRpressure rising rapidly
    PSplus
    PWINOprecipitation identifier sensor not avail
    PYspray
    Rright runway
    RArain
    RMKremarks
    RRRocket Route
    RVRRunway Visual Range
    RWYrunway
    RVRNORVR system not available
    Ssouth
    SAsand
    SCSLstratocumulus standing lenticular cloud
    SCTscattered (3-4 oktas)
    SEsoutheast
    SEVsevere
    SFCsurface
    SGsnow grains
    SHshower(s)
    SKCsky clear
    SLPsea-level pressure
    SLPNOsea-level pressure not available
    SMstatute miles
    SNsnow
    SNOCLOrunway closed due to contamination
    SNINCRsnow increasing rapidly
    SPECIan unscheduled report taken
    SQsqualls
    SSsandstorm
    STNRstationary
    SWsouthwest
    TAFterminal aerodrome forecast
    TKOFtakeoff
    TCUtowering cumulus
    TLuntil
    TOPcloud top
    TROPtropopause
    TSthunderstorm
    TSNOthunderstorm information not available
    TWRtower
    URVR visibility going up
    UPunknown precipitation
    UTCtCoordinated Universal Time
    Vvariable
    VAvolcanic ash
    VCin the vicinity
    VISvisibility
    VISNOvisibility at secondary location not avail
    VRBvariable
    VSPvertical speed
    VVvertical visibility
    Wwest
    WG/SOWorking Group for Surface Observations
    WNDwind
    WSPDwind speed
    WSwind shear
    WSHFTwind shift
    WXweather
    Zzulu utc time

    RUNWAY REPORTS

    METAR Runway Reports may include runway reports which contain information about snow/water coverage and friction coefficient.
    A runway report consists of eight digits in five groups (RRRRERCReReRBRBR) with the following interpretation:

    RRRR

    Runway designator. The numerical identifier of the runway in question.
    88 means all runways, 99 indicates repetition of previous report.

    If there are two parallel runways, the right one is indicated by adding 50
    to its number. For example, runway 04L (or 04) is denoted by 04, whereas 54 means runway 04R.

    ER

    Type of deposit on runway.

    • 0: Clear and dry
    • 1: Damp
    • 2: Wet or puddles
    • 3: Frost
    • 4: Dry snow
    • 5: Wet snow
    • 6: Slush
    • 7: Ice
    • 8: Compacted snow
    • 9: Frozen ridges
    • /: Not reported
    CR

    Extent of deposit.

    • 1: 1-10%
    • 2: 11-25%
    • 5: 26-50%
    • 9: 51-100%
    eReR

    Depth of deposit.

    • 00: Less than 1mm
    • 01..90: depth in mm
    • 92: 10 cm
    • 93: 15 cm
    • 94: 20 cm
    • 95: 25 cm
    • 96: 30 cm
    • 97: 35 cm
    • 98: 40 cm
    • 99: Runway not in use
    BRBR

    Friction coefficient or braking action

    • 01..90: Friction coefficient times 100
      Example 37 indicates a friction coefficient of 0.37
    • 91: Poor braking action
    • 92: Poor/medium braking action
    • 93: Medium braking action
    • 94: Medium/good braking action
    • 95: Good braking action
    • 99: Unreliable measurement
    • //: Not given

    Note: CLRD may replace elements t, e and dd if the runway has been cleared of deposits. For example, 54CLRD95 means runway 04R cleared, braking action good.


    Military METAR Colour Codes

    BlackAirfield closed for non-Met reasons
    RED RedCloud under 200ft, and/or Visibility under 800m
    AMB AmberBetter than Red, but cloud under 300ft, and/or Visibility under 1600m
    YLO YellowBetter than Amber, but cloud under 700ft, and/or Visibility under 3700m.
    GRE GreenBetter than Yellow, but cloud under 1500ft, and/or Visibility under 5km
    WHT WhiteBetter than Green, but Cloud under 2500ft, and/or Visibility under 8km
    BLU BlueCloud 2500ft or above and Visibility 8km or more
    Cloud in this case is the lowest cloudbase designated as SCATTERED or worse.


    NOTE use of any of these pages are your own responsibility
    Always double check with other sources.


    Fly Smart

    Worldwide Flight Planning, Briefings and Filing

    Start with FREE Membership